x

Muskegon, Mi (mkgm4) Weather Station

11:15pm - Sun 27th Jul 2014 All times are CDT. -5 hours from GMT.

  • Wind
    18mph, 24mph gusts
  • Air Temp 62°f
  • Sea Pressure 1010.6mb
  • Muskegon, Mi
  • Muskegon, Mi

More Historic Weather Station data

Upgrade to MSW Pro to gain access to the past 30 days of data for over 8000 Wavebouys and Weather Stations around the globe.

Join Pro

Comparision Forecast

View Surf forecast
   
Sun 07/27 11:15pm 18 24 mph 1010.6mb 62f
11:00pm 14 18 mph 1010.4mb 63f
10:45pm 15 20 mph 1010.1mb 62f
10:30pm 16 21 mph 1010.3mb 59f
10:15pm 17 21 mph 1010.1mb 60f
10:00pm 14 18 mph 1009.6mb 62f
9:45pm 9 11 mph 1009.2mb 63f
9:30pm 10 15 mph 1009mb 63f
9:15pm 13 21 mph 1008.6mb 63f
9:00pm 15 18 mph 1008.4mb 63f
8:45pm 13 17 mph 1008.3mb 59f
8:30pm 16 20 mph 1008.1mb 60f
8:15pm 18 21 mph 1008mb 60f
8:00pm 18 22 mph 1008mb 60f
7:45pm 18 22 mph 1007.8mb 60f
7:30pm 21 25 mph 1007.7mb 60f
7:15pm 24 28 mph 1007.5mb 60f
7:00pm 23 28 mph 1007mb 61f
6:45pm 20 22 mph 1006.8mb 62f
6:30pm 20 22 mph 1006.7mb 63f
6:15pm 24 26 mph 1006.6mb 64f
6:00pm 17 21 mph 1006.4mb 63f
5:45pm 16 20 mph 1006mb 64f
5:30pm 17 21 mph 1005.9mb 65f
5:15pm 14 17 mph 1005.7mb 65f
5:00pm 13 16 mph 1005.6mb 65f
4:45pm 11 14 mph 1005.9mb 65f
4:30pm 11 14 mph 1006.2mb 63f
4:15pm 14 16 mph 1005.8mb 64f
4:00pm 11 14 mph 1005.9mb 64f
3:45pm 13 14 mph 1005.1mb 65f
3:30pm 17 21 mph 1004.7mb 67f
3:15pm 15 20 mph 1004.6mb 68f
3:00pm 11 15 mph 1004.5mb 70f
2:45pm 9 13 mph 1004.7mb 70f
2:30pm 3 6 mph 1004.8mb 69f
2:15pm 2 3 mph 1004.8mb 71f
2:00pm 3 5 mph 1004.9mb 70f
1:45pm 3 5 mph 1005mb 70f
1:30pm 3 5 mph 1005mb 69f
1:15pm 5 6 mph 1005mb 69f
1:00pm 5 6 mph 1005mb 70f
12:45pm 6 8 mph 1005.2mb 69f
12:30pm 8
mph
1005.4mb 69f
12:15pm 6 7 mph 1005.5mb 69f
12:00pm 6
mph
1005.6mb 69f
11:45am 3
mph
1005.7mb 68f
11:30am 2 3 mph 1005.8mb 68f
11:15am 3 5 mph 1005.9mb 68f
11:00am 5 6 mph 1006mb 67f
10:45am 2 3 mph 1006mb 68f
10:30am 2 3 mph 1005.9mb 68f
10:15am 3 5 mph 1006.2mb 67f
10:00am 3 5 mph 1006.4mb 66f
9:45am 3 5 mph 1006.6mb 65f
9:30am 3 5 mph 1006.6mb 65f
9:15am 3 6 mph 1006.7mb 65f
9:00am 6 7 mph 1006.6mb 65f
8:45am 7 8 mph 1006.5mb 66f
8:30am 8 9 mph 1006.7mb 65f
8:15am 6 7 mph 1006.8mb 65f
8:00am 6 7 mph 1007mb 64f
7:45am 6 7 mph 1007mb 64f
7:30am 7 8 mph 1007.1mb 65f
7:15am 10 11 mph 1006.9mb 64f
7:00am 9 10 mph 1006.8mb 64f
6:45am 9 10 mph 1006.9mb 64f
6:30am 11 13 mph 1007.1mb 63f
6:15am 15 16 mph 1007mb 62f
6:00am 16 20 mph 1007mb 63f
5:45am 9 10 mph 1007mb 63f
5:30am 3 6 mph 1007.1mb 64f
5:15am 2 3 mph 1007.1mb 64f
5:00am 7 8 mph 1007mb 64f
4:45am 8 9 mph 1007.2mb 64f
4:30am 3
mph
1008.2mb 62f
4:15am 9 11 mph 1008.2mb 61f
4:00am 13 15 mph 1007.8mb 61f
3:45am 8 10 mph 1007.6mb 63f
3:30am 8 9 mph 1007.6mb 63f
3:15am 8 10 mph 1007.7mb 63f
3:00am 8 10 mph 1008mb 63f
2:45am 10 11 mph 1008.3mb 63f
2:30am 13
mph
1008.5mb 64f
2:15am 8 9 mph 1008.6mb 64f
2:00am 10 11 mph 1008.9mb 64f
1:45am 10 11 mph 1009mb 64f
1:30am 9 10 mph 1009mb 64f
1:15am 10 11 mph 1009.1mb 64f
1:00am 10 11 mph 1009.1mb 64f
12:45am 13 14 mph 1009.2mb 64f
12:30am 10 11 mph 1009.2mb 64f
12:15am 13
mph
1009.3mb 63f
12:00am 14
mph
1009.4mb 64f
Sat 07/26 11:45pm 10 11 mph 1009.4mb 64f
11:30pm 9
mph
1009.5mb 64f
11:15pm 10
mph
1009.6mb 64f
11:00pm 10
mph
1009.7mb 63f
10:45pm 10 11 mph 1009.8mb 64f
10:30pm 10
mph
1009.8mb 64f
10:15pm 8 9 mph 1009.8mb 64f
10:00pm 7 8 mph 1009.8mb 64f
9:45pm 7 8 mph 1009.8mb 64f
9:30pm 8
mph
1009.8mb 63f
9:15pm 9 10 mph 1009.8mb 63f
9:00pm 10
mph
1009.5mb 63f
8:45pm 13 14 mph 1009.5mb 63f
8:30pm 15
mph
1009.4mb 63f
8:15pm 15 16 mph 1009.5mb 63f
8:00pm 16 17 mph 1009.4mb 63f
7:45pm 15 17 mph 1009.4mb 63f
7:30pm 17 18 mph 1008.9mb 64f
7:15pm 13 14 mph 1008.5mb 65f
7:00pm 7 9 mph 1008.7mb 65f
6:45pm 5 7 mph 1009.6mb 64f
6:30pm 6 7 mph 1009.5mb 64f
6:15pm 7 9 mph 1009.4mb 65f
6:00pm 6
mph
1009.1mb 66f
5:45pm 3 5 mph 1009.3mb 67f
5:30pm 6 7 mph 1009.3mb 67f
5:15pm 6 7 mph 1009.3mb 66f
5:00pm 6 7 mph 1009.5mb 66f
4:45pm 7 8 mph 1009.3mb 67f
4:30pm 6 7 mph 1009.3mb 66f
4:15pm 7 8 mph 1009.7mb 67f
4:00pm 5 6 mph 1009.9mb 67f
3:45pm 7
mph
1009.7mb 68f
3:30pm 6 7 mph 1009.9mb 67f
3:15pm 8 9 mph 1010mb 68f
3:00pm 6
mph
1010.2mb 66f
2:45pm 6 7 mph 1010.6mb 65f
2:30pm 7 9 mph 1010.4mb 67f
2:15pm 9
mph
1010.6mb 67f
2:00pm 9 11 mph 1010.6mb 67f
1:45pm 8 10 mph 1010.1mb 68f
1:30pm 9 10 mph 1010.4mb 67f
1:15pm 10 11 mph 1010.1mb 67f
1:00pm 9 10 mph 1010.2mb 65f
12:45pm 8 10 mph 1010.9mb 65f
12:30pm 9 10 mph 1011mb 65f
12:15pm 8 9 mph 1011.2mb 65f
12:00pm 7 8 mph 1011.6mb 65f
11:45am 8 9 mph 1011.6mb 66f
11:30am 8 9 mph 1011.5mb 66f
11:15am 9 10 mph 1011.5mb 65f
11:00am 10 13 mph 1011.3mb 66f
10:45am 13 15 mph 1011.2mb 65f
10:30am 14 15 mph 1011.4mb 65f
10:15am 14
mph
1011.4mb 65f
10:00am 14 15 mph 1011.4mb 64f
9:45am 14 16 mph 1011.2mb 64f
9:30am 15 16 mph 1011.5mb 64f
9:15am 15 16 mph 1011.7mb 63f
9:00am 16 17 mph 1011.8mb 61f
8:45am 15
mph
1012mb 62f
8:30am 14 15 mph 1011.8mb 62f
8:15am 14 15 mph 1011.9mb 62f
8:00am 15 16 mph 1012mb 61f
7:45am 15 16 mph 1011.9mb 62f
7:30am 14 15 mph 1012mb 62f
7:15am 15 16 mph 1011.8mb 61f
7:00am 14 15 mph 1011.8mb 61f
6:45am 13 14 mph 1012mb 60f
6:30am 13 14 mph 1012mb 61f
6:15am 14 15 mph 1011.8mb 60f
6:00am 14
mph
1011.7mb 60f
5:45am 14 15 mph 1011.8mb 60f
5:30am 13 14 mph 1011.7mb 60f
5:15am 14
mph
1011.8mb 60f
5:00am 13 14 mph 1011.9mb 60f
4:45am 13 14 mph 1011.8mb 60f
4:30am 10 11 mph 1011.9mb 60f
4:15am 9 10 mph 1012.1mb 60f
4:00am 11
mph
1012.1mb 60f
3:45am 13 14 mph 1012mb 59f
3:30am 11 13 mph 1012.2mb 59f
3:15am 13 14 mph 1012.3mb 59f
3:00am 13 14 mph 1012.2mb 60f
2:45am 11 14 mph 1012.2mb 60f
2:30am 13 14 mph 1012.4mb 59f
2:15am 14
mph
1012.6mb 58f
2:00am 15
mph
1012.8mb 58f
1:45am 15 16 mph 1012.9mb 59f
1:30am 17
mph
1013mb 59f
1:15am 16 18 mph 1013mb 61f
1:00am 16 17 mph 1013.1mb 61f
12:45am 16 17 mph 1013.3mb 60f
12:30am 16 17 mph 1013.4mb 60f
12:15am 16 17 mph 1013.5mb 60f
12:00am 15 16 mph 1013.5mb 61f
Fri 07/25 11:45pm 15 16 mph 1013.6mb 61f
11:30pm 14 15 mph 1013.6mb 61f
11:15pm 14 15 mph 1013.7mb 61f
11:00pm 14 15 mph 1013.9mb 61f
10:45pm 15 16 mph 1013.9mb 60f
10:30pm 16
mph
1013.8mb 61f
10:15pm 15 16 mph 1014mb 60f
10:00pm 15 16 mph 1013.9mb 60f
9:45pm 16
mph
1013.9mb 59f
9:30pm 17 18 mph 1013.8mb 61f
9:15pm 18
mph
1013.7mb 61f
9:00pm 17 18 mph 1013.7mb 62f
8:45pm 17 18 mph 1013.7mb 62f
8:30pm 16 17 mph 1013.8mb 62f
8:15pm 16 17 mph 1013.7mb 63f
8:00pm 16 17 mph 1013.6mb 63f
7:45pm 16
mph
1013.8mb 62f
7:30pm 16 17 mph 1013.7mb 62f
7:15pm 16 17 mph 1013.7mb 63f
7:00pm 15 16 mph 1013.7mb 65f
6:45pm 13 14 mph 1013.7mb 66f
6:30pm 11 13 mph 1013.8mb 66f
6:15pm 11 13 mph 1013.9mb 66f
6:00pm 9 11 mph 1014.3mb 66f
5:45pm 9 13 mph 1014.8mb 62f
5:30pm 17
mph
1014.2mb 63f
5:15pm 13 14 mph 1014.7mb 63f
5:00pm 11 13 mph 1015mb 62f
4:45pm 13 14 mph 1015mb 62f
4:30pm 10 13 mph 1015.5mb 60f
4:15pm 11 13 mph 1015.5mb 62f
4:00pm 11 13 mph 1015.1mb 62f
3:45pm 13 14 mph 1015.1mb 64f
3:30pm 11 13 mph 1014.9mb 65f
3:15pm 13 14 mph 1015mb 64f
3:00pm 15 16 mph 1015mb 64f
2:45pm 16 17 mph 1015.2mb 63f
2:30pm 16 17 mph 1015.3mb 64f
2:15pm 16 17 mph 1015.5mb 63f
2:00pm 16 17 mph 1015.5mb 62f
1:45pm 16 17 mph 1015.8mb 60f
1:30pm 16 17 mph 1016mb 60f
1:15pm 16 17 mph 1016mb 60f
1:00pm 20 21 mph 1015.7mb 61f
12:45pm 21 22 mph 1015.7mb 59f
12:30pm 22 23 mph 1015.9mb 59f
12:15pm 22 23 mph 1015.9mb 60f
12:00pm 21 22 mph 1016.3mb 59f
11:45am 21 22 mph 1016.3mb 60f
11:30am 20 22 mph 1016.5mb 60f
11:15am 18 21 mph 1016.7mb 60f
11:00am 18 21 mph 1016.6mb 59f
10:45am 17 18 mph 1016.8mb 60f
10:30am 16 18 mph 1017.1mb 59f
10:15am 16 20 mph 1017.1mb 58f
10:00am 18 21 mph 1017.3mb 59f
9:45am 17 18 mph 1017.4mb 58f
9:30am 17 18 mph 1017.8mb 58f
9:15am 17 20 mph 1018.1mb 58f
9:00am 15 16 mph 1018.2mb 59f
8:45am 14 15 mph 1018.4mb 60f
8:30am 13 14 mph 1018.7mb 58f
8:15am 15 16 mph 1018.9mb 58f
8:00am 14 15 mph 1019.2mb 56f
7:45am 14 15 mph 1019.5mb 56f
7:30am 14 15 mph 1019.1mb 56f
7:15am 14
mph
1018.7mb 56f
7:00am 11 13 mph 1018.2mb 56f
6:45am 11 13 mph 1018mb 57f
6:30am 13 14 mph 1018.2mb 56f
6:15am 13 14 mph 1018mb 55f
6:00am 13 15 mph 1018.2mb 55f
5:45am 15 16 mph 1017.9mb 55f
5:30am 13 14 mph 1017.8mb 54f
5:15am 14 15 mph 1018mb 53f
5:00am 14
mph
1017.6mb 55f
4:45am 13 14 mph 1017.4mb 55f
4:30am 10 11 mph 1017.8mb 55f
4:15am 9 10 mph 1017.8mb 56f
4:00am 7 8 mph 1017.8mb 56f
3:45am 7
mph
1017.8mb 56f
3:30am 6 7 mph 1017.9mb 56f
3:15am 5
mph
1018.1mb 56f
3:00am 3
mph
1018.3mb 56f
2:45am 3
mph
1018.3mb 56f
2:30am 5 6 mph 1018.2mb 57f
2:15am 5
mph
1018.2mb 57f
2:00am 3
mph
1018.1mb 58f
1:45am 5
mph
1018.2mb 58f
1:30am 5
mph
1018.2mb 57f
1:15am 2
mph
1018.2mb 57f
1:00am 3 5 mph 1018.2mb 58f
12:45am 3 5 mph 1018.2mb 59f
12:30am 5 7 mph 1018.5mb 56f
12:15am 5 7 mph 1018.3mb 57f
12:00am 1 2 mph 1018.1mb 56f
Thu 07/24 11:45pm 5
mph
1017.8mb 58f
11:30pm 3 5 mph 1018mb 57f
11:15pm 2 3 mph 1018.1mb 56f
11:00pm 3 5 mph 1017.7mb 61f
10:45pm 7
mph
1017.8mb 60f
10:30pm 3 5 mph 1018.2mb 58f
10:15pm 5
mph
1018.2mb 58f
10:00pm  -  1 mph 1018.5mb 58f
9:45pm 1 2 mph 1018.7mb 58f
9:30pm 2 3 mph 1018.6mb 58f
9:15pm 1 2 mph 1018.7mb 58f
9:00pm 1
mph
1018.7mb 58f
8:45pm 2
mph
1019mb 59f
8:30pm  -  mph 1018.9mb 59f
8:15pm 2 3 mph 1019mb 58f
8:00pm 3 5 mph 1018.9mb 59f
7:45pm 3 5 mph 1018.7mb 61f
7:30pm 6 7 mph 1018.7mb 62f
7:15pm 6 7 mph 1018.6mb 62f
7:00pm 8 9 mph 1018.9mb 63f
6:45pm 10 13 mph 1019.2mb 63f
6:30pm 11 14 mph 1019.5mb 62f
6:15pm 11 14 mph 1019.7mb 62f
6:00pm 11 14 mph 1019.6mb 62f
5:45pm 10 13 mph 1019.7mb 62f
5:30pm 10 13 mph 1019.5mb 63f
5:15pm 11 14 mph 1019.5mb 62f
5:00pm 11 14 mph 1019.3mb 61f
4:45pm 11 14 mph 1019.7mb 60f
4:30pm 11 14 mph 1019.7mb 59f
4:15pm 10 14 mph 1019.6mb 59f
4:00pm 10 14 mph 1019.6mb 59f
3:45pm 11 15 mph 1019.8mb 59f
3:30pm 13 15 mph 1020.1mb 58f
3:15pm 11 14 mph 1020.2mb 59f
3:00pm 11 15 mph 1020.2mb 60f
2:45pm 11 15 mph 1020.5mb 61f
2:30pm 13 15 mph 1020.8mb 59f
2:15pm 13 15 mph 1020.9mb 60f
2:00pm 11 14 mph 1021.2mb 59f
1:45pm 13 14 mph 1021.5mb 58f
1:30pm 11 13 mph 1021.6mb 58f
1:15pm 11 14 mph 1021.6mb 58f
1:00pm 13
mph
1021.7mb 58f
12:45pm 11 13 mph 1021.8mb 58f
12:30pm 9 11 mph 1021.9mb 57f
12:15pm 9 11 mph 1021.9mb 57f
12:00pm 10 13 mph 1021.9mb 56f
11:45am 11 13 mph 1022mb 56f
11:30am 9 11 mph 1022.1mb 56f
11:15am 8 9 mph 1022mb 56f
11:00am 8 10 mph 1022.2mb 55f
10:45am 9 11 mph 1022.3mb 55f
10:30am 10 11 mph 1022.4mb 55f
10:15am 9 10 mph 1022.5mb 56f
10:00am 8 9 mph 1022.5mb 55f
9:45am 8 10 mph 1022.7mb 54f
9:30am 8 9 mph 1022.6mb 55f
9:15am 5 6 mph 1022.8mb 54f
9:00am 5 6 mph 1022.8mb 54f
8:45am 2 3 mph 1022.9mb 54f
8:30am 2 3 mph 1022.9mb 54f
8:15am 3 6 mph 1023mb 53f
8:00am 5 7 mph 1022.6mb 61f
7:45am 5 8 mph 1022.5mb 58f
7:30am 2 3 mph 1022.7mb 53f
7:15am 3 5 mph 1022.7mb 53f
7:00am 5 6 mph 1022.6mb 53f
6:45am 3 6 mph 1022.3mb 56f
6:30am 5 7 mph 1022.1mb 56f
6:15am 7 9 mph 1022.1mb 55f
6:00am 9 10 mph 1022mb 54f
5:45am 10 11 mph 1021.8mb 54f
5:30am 9 11 mph 1021.7mb 55f
5:15am 9 11 mph 1021.6mb 54f